Tangerine, Florida
Current Conditions -  °F | °C
As of 12:53 PM on Saturday 25 Oct 2014 (Local Time) from KLEE Reporting Station
Clear Clear  
Wind Chill: 76°   Ceiling: Unl
Heat Index: 76°   Visibility: 10mi
Dew Point: 48°   Wind: 7mph
Humidity: 37%   Direction: 350°N
Pressure: 30"   Gusts: NA
Location:  28.76°N, 81.63°W
Report Text: KLEE 251653Z 35006KT 10SM CLR 24/09 A3000 RMK AO2 SLP158 T02440089
Loading
Personal Weather Stations






























Interactive Weather Map
Tropical Storm Tracking
New forecast layout! Learn more

10-Day Weather Forecast

Advertisements
Track Severe Weather on mobile